Latest Weather Observations for Batchelor

IDD60801

Issued at 8:31 am CST Sunday 28 May 2017 (issued every 30 minutes, with the page automatically refreshed every 10 minutes)

About weather observations | Map of weather stations | Latest weather observations for NT | Other Formats
Station Details ID: 014272 Name: BATCHELOR AIRPORT Lat: -13.05 Lon: 131.03 Height: 104.0 m
Data from the previous 72 hours. | See also: Recent months at Batchelor
Date/Time
CST
Temp
°C
App
Temp
°C
Dew
Point
°C
Rel
Hum
%
Delta-T
°C
Wind Press
QNH
hPa
Press
MSL
hPa
Rain since
9am
mm
Dir  Spd
km/h
Gust
km/h
Spd
kts
Gust
kts
28/08:30am 26.7 26.3 14.1 46 7.5 ESE 9 13 5 7 1013.7 1013.1 0.0
28/08:00am 23.4 24.4 16.4 64 4.3 E 6 7 3 4 1013.3 1012.7 0.0
28/07:30am 20.6 22.5 16.6 78 2.4 E 2 4 1 2 1013.1 1012.5 0.0
28/07:00am 20.7 22.1 16.3 76 2.7 E 4 4 2 2 1012.8 1012.2 0.0
28/06:30am 22.5 24.1 16.8 70 3.5 E 4 6 2 3 1012.5 1012.0 0.0
28/06:00am 22.8 24.1 17.0 70 3.6 E 6 6 3 3 1012.3 1011.8 0.0
28/05:30am 22.1 23.9 17.5 75 2.9 E 4 6 2 3 1012.2 1011.7 0.0
28/05:00am 22.2 24.0 17.3 74 3.0 E 4 4 2 2 1011.8 1011.3 0.0
28/04:30am 22.3 23.9 17.0 72 3.3 E 4 6 2 3 1011.9 1011.4 0.0
28/04:00am 23.2 24.9 17.2 69 3.7 E 4 6 2 3 1012.0 1011.5 0.0
28/03:30am 23.3 24.7 17.3 69 3.7 E 6 6 3 3 1012.0 1011.5 0.0
28/03:00am 22.7 24.8 18.0 75 2.9 ESE 4 6 2 3 1012.4 1011.9 0.0
28/02:30am 22.8 25.2 17.9 74 3.1 ESE 2 2 1 1 1012.8 1012.2 0.0
28/02:00am 22.9 25.6 17.8 73 3.2 CALM 0 0 0 0 1013.1 1012.5 0.0
28/01:30am 22.6 25.4 17.9 75 2.9 CALM 0 0 0 0 1013.2 1012.6 0.0
28/01:00am 21.9 23.7 17.5 76 2.7 ESE 4 6 2 3 1013.2 1012.6 0.0
28/12:30am 22.5 25.4 18.1 76 2.8 CALM 0 4 0 2 1013.1 1012.5 0.0
28/12:00am 22.6 25.1 18.2 76 2.8 ESE 2 4 1 2 1013.3 1012.7 0.0
 
Date/Time
CST
Temp
°C
App
Temp
°C
Dew
Point
°C
Rel
Hum
%
Delta-T
°C
Wind Press
QNH
hPa
Press
MSL
hPa
Rain since
9am
mm
Dir  Spd
km/h
Gust
km/h
Spd
kts
Gust
kts
27/11:30pm 23.3 26.0 17.7 71 3.5 CALM 0 0 0 0 1013.4 1012.8 0.0
27/11:00pm 23.5 26.1 17.5 69 3.7 CALM 0 0 0 0 1013.3 1012.7 0.0
27/10:30pm 23.6 26.0 18.0 71 3.5 ESE 2 4 1 2 1013.4 1012.8 0.0
27/10:00pm 23.7 25.9 17.4 68 3.9 ESE 2 2 1 1 1013.3 1012.7 0.0
27/09:30pm 23.9 26.0 17.2 66 4.2 ESE 2 6 1 3 1013.2 1012.6 0.0
27/09:00pm 23.9 26.4 17.2 66 4.2 CALM 0 0 0 0 1013.0 1012.4 0.0
27/08:30pm 24.3 26.7 17.1 64 4.5 CALM 0 0 0 0 1012.5 1012.0 0.0
27/08:00pm 24.1 26.3 16.6 63 4.6 CALM 0 0 0 0 1012.2 1011.7 0.0
27/07:30pm 23.9 25.6 15.1 58 5.3 CALM 0 0 0 0 1011.8 1011.3 0.0
27/07:00pm 24.9 26.6 15.2 54 5.9 CALM 0 0 0 0 1011.5 1011.0 0.0
27/06:30pm 27.2 28.1 13.9 44 7.9 ESE 2 4 1 2 1011.2 1010.6 0.0
27/06:00pm 28.8 28.6 13.1 38 9.3 SE 6 6 3 3 1010.9 1010.3 0.0
27/05:30pm 29.8 28.8 12.3 34 10.3 ESE 9 13 5 7 1010.7 1010.1 0.0
27/05:00pm 31.2 28.0 11.1 29 11.7 ESE 19 24 10 13 1010.4 1009.8 0.0
27/04:30pm 32.3 29.4 9.8 25 12.9 E 15 24 8 13 1010.3 1009.7 0.0
27/04:00pm 32.5 29.1 9.3 24 13.2 ESE 17 28 9 15 1010.1 1009.5 0.0
27/03:30pm 32.9 28.9 8.4 22 13.8 ESE 19 30 10 16 1010.3 1009.7 0.0
27/03:00pm 32.2 27.9 7.1 21 13.8 ESE 19 30 10 16 1010.4 1009.8 0.0
27/02:30pm 33.0 28.9 8.5 22 13.8 E 20 28 11 15 1010.7 1010.1 0.0
27/02:00pm 32.1 28.3 9.0 24 13.0 ESE 19 28 10 15 1011.0 1010.4 0.0
27/01:30pm 32.1 27.9 8.4 23 13.3 ESE 20 28 11 15 1011.4 1010.8 0.0
27/01:00pm 32.1 27.9 8.4 23 13.2 ESE 20 32 11 17 1011.9 1011.4 0.0
27/12:30pm 31.8 27.0 8.7 24 13.0 ESE 24 39 13 21 1012.3 1011.8 0.0
27/12:00pm 31.5 27.7 9.7 26 12.4 ESE 20 28 11 15 1012.6 1012.1 0.0
27/11:30am 31.1 26.2 9.9 27 12.1 ESE 26 41 14 22 1013.1 1012.5 0.0
27/11:00am 30.1 27.0 11.6 32 10.8 E 19 28 10 15 1013.4 1012.8 0.0
27/10:30am 29.5 26.6 12.4 35 10.1 E 19 26 10 14 1013.7 1013.1 0.0
27/10:00am 28.8 26.5 14.2 40 8.8 ESE 19 26 10 14 1013.9 1013.3 0.0
27/09:30am 27.5 24.8 13.4 41 8.4 ESE 20 30 11 16 1014.1 1013.5 0.0
27/09:00am 26.6 26.4 16.8 55 6.1 ESE 13 24 7 13 1014.1 1013.5 0.0
27/08:30am 24.8 26.7 18.5 68 4.0 E 6 7 3 4 1014.1 1013.5 0.0
27/08:00am 22.6 25.1 19.0 80 2.3 E 4 6 2 3 1014.0 1013.4 0.0
27/07:30am 22.0 25.2 18.8 82 2.0 CALM 0 0 0 0 1013.7 1013.1 0.0
27/07:00am 22.2 25.1 19.0 82 2.0 E 2 4 1 2 1013.3 1012.7 0.0
27/06:30am 22.7 25.7 19.3 81 2.2 E 2 4 1 2 1013.0 1012.4 0.0
27/06:00am 22.6 25.4 19.6 83 1.9 E 4 6 2 3 1012.9 1012.3 0.0
27/05:30am 21.9 24.5 19.3 85 1.7 E 4 4 2 2 1012.4 1011.9 0.0
27/05:00am 21.8 23.9 19.0 84 1.8 E 6 6 3 3 1012.2 1011.7 0.0
27/04:30am 22.0 24.3 18.6 81 2.1 E 4 6 2 3 1012.2 1011.7 0.0
27/04:00am 23.1 25.5 18.8 77 2.7 E 4 6 2 3 1012.3 1011.8 0.0
27/03:30am 23.5 26.3 19.6 79 2.5 E 4 6 2 3 1012.5 1012.0 0.0
27/03:00am 23.2 25.7 19.8 81 2.2 E 6 9 3 5 1013.0 1012.4 0.0
27/02:30am 22.0 24.5 19.0 83 1.9 N 4 4 2 2 1013.1 1012.5 0.0
27/02:00am 22.1 25.4 19.1 83 1.9 CALM 0 0 0 0 1013.2 1012.6 0.0
27/01:30am 22.2 25.5 19.0 82 2.0 CALM 0 0 0 0 1013.2 1012.6 0.0
27/01:00am 22.4 25.7 19.0 81 2.2 CALM 0 0 0 0 1013.2 1012.6 0.0
27/12:30am 22.2 25.2 18.4 79 2.4 CALM 0 0 0 0 1013.2 1012.6 0.0
27/12:00am 22.3 25.2 18.3 78 2.5 CALM 0 0 0 0 1013.2 1012.6 0.0
 
Date/Time
CST
Temp
°C
App
Temp
°C
Dew
Point
°C
Rel
Hum
%
Delta-T
°C
Wind Press
QNH
hPa
Press
MSL
hPa
Rain since
9am
mm
Dir  Spd
km/h
Gust
km/h
Spd
kts
Gust
kts
26/11:30pm 22.4 25.4 18.4 78 2.5 CALM 0 0 0 0 1013.1 1012.5 0.0
26/11:00pm 22.5 25.4 18.3 77 2.6 CALM 0 0 0 0 1013.2 1012.6 0.0
26/10:30pm 22.6 25.5 18.2 76 2.8 CALM 0 0 0 0 1013.2 1012.6 0.0
26/10:00pm 22.9 25.8 18.2 75 3.0 CALM 0 0 0 0 1013.1 1012.5 0.0
26/09:30pm 23.2 25.4 17.4 70 3.6 N 2 2 1 1 1013.1 1012.5 0.0
26/09:00pm 24.6 26.9 17.6 65 4.4 N 2 4 1 2 1013.1 1012.5 0.0
26/08:30pm 25.6 27.2 17.8 62 4.9 N 6 7 3 4 1013.0 1012.4 0.0
26/08:00pm 26.0 27.1 17.1 58 5.6 NNE 7 15 4 8 1012.5 1012.0 0.0
26/07:30pm 24.3 26.1 15.5 58 5.3 CALM 0 0 0 0 1012.0 1011.5 0.0
26/07:00pm 25.7 27.5 15.4 53 6.3 CALM 0 0 0 0 1011.7 1011.2 0.0
26/06:30pm 28.2 28.9 14.4 42 8.3 ENE 4 4 2 2 1011.4 1010.8 0.0
26/06:00pm 30.2 29.8 13.0 34 10.3 ENE 7 11 4 6 1010.9 1010.3 0.0
26/05:30pm 31.3 29.8 13.1 33 10.9 ENE 13 20 7 11 1010.6 1010.0 0.0
26/05:00pm 32.0 30.9 13.2 31 11.3 NE 11 19 6 10 1010.4 1009.8 0.0
26/04:30pm 32.5 30.5 12.7 30 11.9 E 15 20 8 11 1010.2 1009.6 0.0
26/04:00pm 32.8 31.4 13.4 30 11.8 ENE 13 19 7 10 1010.2 1009.6 0.0
26/03:30pm 32.7 31.1 13.8 31 11.5 E 15 22 8 12 1010.4 1009.8 0.0
26/03:00pm 32.3 29.8 13.5 32 11.4 E 19 33 10 18 1010.4 1009.8 0.0
26/02:30pm 32.8 30.1 13.4 30 11.8 E 20 32 11 17 1010.7 1010.1 0.0
26/02:00pm 31.9 28.9 12.7 31 11.5 E 20 35 11 19 1011.0 1010.4 0.0
26/01:30pm 31.9 29.3 13.2 32 11.3 E 19 28 10 15 1011.4 1010.8 0.0
26/01:00pm 31.7 27.7 13.0 32 11.2 ESE 26 39 14 21 1011.9 1011.4 0.0
26/12:30pm 31.2 28.1 14.4 36 10.3 E 24 39 13 21 1012.3 1011.8 0.0
26/12:00pm 30.4 26.8 13.2 35 10.3 E 24 39 13 21 1012.9 1012.3 0.0
26/11:30am 30.3 27.0 14.0 37 9.9 ESE 24 35 13 19 1013.4 1012.8 0.0
26/11:00am 29.9 26.0 13.2 36 10.0 E 26 41 14 22 1013.8 1013.2 0.0
26/10:30am 29.2 26.0 14.2 40 9.1 E 24 35 13 19 1014.0 1013.4 0.0
26/10:00am 28.2 26.0 14.4 42 8.3 E 19 28 10 15 1014.2 1013.6 0.0
26/09:30am 27.1 25.3 14.5 46 7.6 E 17 26 9 14 1014.3 1013.7 0.0
26/09:00am 26.1 25.0 15.2 51 6.6 ESE 15 22 8 12 1014.2 1013.6 0.0
26/08:30am 25.1 24.8 15.4 55 5.9 ESE 11 17 6 9 1014.2 1013.6 0.0
26/08:00am 23.9 23.9 16.2 62 4.7 ESE 11 15 6 8 1013.7 1013.1 0.0
26/07:30am 21.6 22.5 16.6 73 3.0 ESE 7 9 4 5 1013.4 1012.8 0.0
26/07:00am 21.5 22.4 16.7 74 2.9 ESE 7 11 4 6 1013.1 1012.5 0.0
26/06:30am 21.8 22.7 16.7 73 3.1 ESE 7 11 4 6 1012.5 1012.0 0.0
26/06:00am 21.5 22.4 16.5 73 3.0 ESE 7 11 4 6 1012.2 1011.7 0.0
26/05:30am 21.7 22.5 16.4 72 3.2 E 7 9 4 5 1012.0 1011.5 0.0
26/05:00am 22.4 23.3 16.2 68 3.8 E 6 9 3 5 1011.9 1011.4 0.0
26/04:30am 23.3 23.8 16.6 66 4.1 ESE 9 13 5 7 1011.8 1011.3 0.0
26/04:00am 23.1 23.5 16.4 66 4.1 ESE 9 15 5 8 1011.8 1011.3 0.0
26/03:30am 23.2 23.7 16.5 66 4.1 ESE 9 13 5 7 1011.8 1011.3 0.0
26/03:00am 23.1 24.0 16.6 67 4.0 ESE 7 11 4 6 1011.8 1011.3 0.0
26/02:30am 23.2 24.3 17.2 69 3.7 ESE 7 13 4 7 1012.0 1011.5 0.0
26/02:00am 22.3 23.9 17.0 72 3.3 E 4 7 2 4 1012.1 1011.6 0.0
26/01:30am 21.4 23.2 17.4 78 2.5 E 4 7 2 4 1012.3 1011.8 0.0
26/01:00am 21.2 23.8 17.4 79 2.3 CALM 0 0 0 0 1012.5 1012.0 0.0
26/12:30am 21.3 24.0 17.7 80 2.2 CALM 0 0 0 0 1012.5 1012.0 0.0
26/12:00am 21.7 24.4 17.7 78 2.5 CALM 0 0 0 0 1012.8 1012.2 0.0
 
Date/Time
CST
Temp
°C
App
Temp
°C
Dew
Point
°C
Rel
Hum
%
Delta-T
°C
Wind Press
QNH
hPa
Press
MSL
hPa
Rain since
9am
mm
Dir  Spd
km/h
Gust
km/h
Spd
kts
Gust
kts
25/11:30pm 22.1 24.8 17.7 76 2.7 CALM 0 0 0 0 1012.9 1012.3 0.0
25/11:00pm 22.7 24.9 17.4 72 3.3 E 2 2 1 1 1012.8 1012.2 0.0
25/10:30pm 23.4 25.7 17.6 70 3.6 E 2 2 1 1 1012.9 1012.3 0.0
25/10:00pm 24.5 27.2 17.7 66 4.3 CALM 0 0 0 0 1012.9 1012.3 0.0
25/09:30pm 24.9 27.1 17.4 63 4.7 E 2 6 1 3 1013.0 1012.4 0.0
25/09:00pm 25.3 27.4 18.2 64 4.5 E 4 4 2 2 1012.8 1012.2 0.0
25/08:30pm 25.1 27.9 18.8 68 4.0 E 2 6 1 3 1012.5 1012.0 0.0
25/08:00pm 25.4 28.1 17.8 62 4.8 CALM 0 0 0 0 1012.1 1011.6 0.0
25/07:30pm 25.8 28.5 17.7 61 5.1 CALM 0 0 0 0 1011.6 1011.1 0.0
25/07:00pm 26.9 29.5 17.4 56 6.0 CALM 0 0 0 0 1011.2 1010.6 0.0
25/06:30pm 28.7 31.3 17.6 51 7.1 CALM 0 0 0 0 1011.0 1010.4 0.0
25/06:00pm 29.9 31.6 16.3 43 8.5 E 2 4 1 2 1010.6 1010.0 0.0
25/05:30pm 32.1 32.1 15.1 35 10.5 E 9 13 5 7 1010.4 1009.8 0.0
25/05:00pm 32.4 31.8 14.5 33 11.0 E 11 17 6 9 1010.1 1009.5 0.0
25/04:30pm 33.1 32.1 14.7 33 11.4 ENE 13 19 7 10 1010.0 1009.4 0.0
25/04:00pm 33.1 32.5 14.7 33 11.4 E 11 22 6 12 1010.0 1009.4 0.0
25/03:30pm 33.2 31.9 14.8 33 11.4 E 15 28 8 15 1010.0 1009.4 0.0
25/03:00pm 32.2 31.3 14.8 35 10.7 ENE 13 19 7 10 1010.3 1009.7 0.0
25/02:30pm 32.2 30.9 14.8 35 10.7 E 15 24 8 13 1010.5 1009.9 0.0
25/02:00pm 32.9 31.7 15.0 34 11.1 NE 15 24 8 13 1011.1 1010.5 0.0
25/01:30pm 32.2 30.7 14.3 33 11.0 E 15 24 8 13 1011.7 1011.2 0.0
25/01:00pm 32.5 30.6 15.1 35 10.8 ENE 19 28 10 15 1012.2 1011.7 0.0
25/12:30pm 32.2 30.1 14.8 35 10.7 ENE 19 32 10 17 1012.6 1012.1 0.0
25/12:00pm 31.9 29.7 15.0 36 10.4 E 20 35 11 19 1013.1 1012.5 0.0
25/11:30am 31.4 30.8 16.6 41 9.4 E 15 22 8 12 1013.5 1012.9 0.0
25/11:00am 29.9 28.9 16.7 45 8.3 E 17 24 9 13 1014.0 1013.4 0.0
25/10:30am 29.4 28.6 17.2 47 7.7 E 17 26 9 14 1014.2 1013.6 0.0
25/10:00am 28.4 27.3 17.3 51 7.0 ESE 19 26 10 14 1014.2 1013.6 0.0
25/09:30am 27.3 26.8 17.8 56 6.0 E 17 24 9 13 1014.2 1013.6 0.0
25/09:00am 26.2 26.0 17.6 59 5.4 ESE 15 20 8 11 1014.0 1013.4 0.0

Other Formats:

Comma delimited format used in spreadsheet applications
http://www.bom.gov.au/fwo/IDD60801/IDD60801.94125.axf

JavaScript Object Notation format (JSON) in row-major order
http://www.bom.gov.au/fwo/IDD60801/IDD60801.94125.json